sensor_id;sensor_type;location;lat;lon;timestamp;temperature;humidity
25582;DHT22;13462;50.764;4.332;2022-11-11T00:00:27;9.80;99.90
25582;DHT22;13462;50.764;4.332;2022-11-11T00:02:54;9.70;99.90
25582;DHT22;13462;50.764;4.332;2022-11-11T00:05:20;9.70;99.90
25582;DHT22;13462;50.764;4.332;2022-11-11T00:07:46;9.70;99.90
25582;DHT22;13462;50.764;4.332;2022-11-11T00:10:12;9.70;99.90
25582;DHT22;13462;50.764;4.332;2022-11-11T00:12:37;9.70;99.90
25582;DHT22;13462;50.764;4.332;2022-11-11T00:15:04;9.80;99.90
25582;DHT22;13462;50.764;4.332;2022-11-11T00:17:30;9.80;99.90
25582;DHT22;13462;50.764;4.332;2022-11-11T00:20:14;9.80;99.90
25582;DHT22;13462;50.764;4.332;2022-11-11T00:22:58;9.70;99.90
25582;DHT22;13462;50.764;4.332;2022-11-11T00:25:42;9.70;99.90
25582;DHT22;13462;50.764;4.332;2022-11-11T00:28:07;9.70;99.90
25582;DHT22;13462;50.764;4.332;2022-11-11T00:30:33;9.70;99.90
25582;DHT22;13462;50.764;4.332;2022-11-11T00:32:59;9.70;99.90
25582;DHT22;13462;50.764;4.332;2022-11-11T00:35:24;9.80;99.90
25582;DHT22;13462;50.764;4.332;2022-11-11T00:38:10;9.70;99.90
25582;DHT22;13462;50.764;4.332;2022-11-11T00:40:56;9.80;99.90
25582;DHT22;13462;50.764;4.332;2022-11-11T00:43:22;9.80;99.90
25582;DHT22;13462;50.764;4.332;2022-11-11T00:45:47;9.80;99.90
25582;DHT22;13462;50.764;4.332;2022-11-11T00:48:13;9.80;99.90
25582;DHT22;13462;50.764;4.332;2022-11-11T00:50:57;9.70;99.90
25582;DHT22;13462;50.764;4.332;2022-11-11T00:53:28;9.70;99.90
25582;DHT22;13462;50.764;4.332;2022-11-11T00:55:55;9.70;99.90
25582;DHT22;13462;50.764;4.332;2022-11-11T00:58:22;9.70;99.90
25582;DHT22;13462;50.764;4.332;2022-11-11T01:00:48;9.80;99.90
25582;DHT22;13462;50.764;4.332;2022-11-11T01:03:20;9.80;99.90
25582;DHT22;13462;50.764;4.332;2022-11-11T01:05:45;9.80;99.90
25582;DHT22;13462;50.764;4.332;2022-11-11T01:08:12;9.70;99.90
25582;DHT22;13462;50.764;4.332;2022-11-11T01:10:38;9.80;99.90
25582;DHT22;13462;50.764;4.332;2022-11-11T01:13:14;9.80;99.90
25582;DHT22;13462;50.764;4.332;2022-11-11T01:15:46;9.80;99.90
25582;DHT22;13462;50.764;4.332;2022-11-11T01:18:13;9.70;99.90
25582;DHT22;13462;50.764;4.332;2022-11-11T01:20:39;9.80;99.90
25582;DHT22;13462;50.764;4.332;2022-11-11T01:23:05;9.60;99.90
25582;DHT22;13462;50.764;4.332;2022-11-11T01:25:34;9.50;99.90
25582;DHT22;13462;50.764;4.332;2022-11-11T01:28:01;9.60;99.90
25582;DHT22;13462;50.764;4.332;2022-11-11T01:30:27;9.60;99.90
25582;DHT22;13462;50.764;4.332;2022-11-11T01:32:52;9.60;99.90
25582;DHT22;13462;50.764;4.332;2022-11-11T01:35:18;9.70;99.90
25582;DHT22;13462;50.764;4.332;2022-11-11T01:37:43;9.50;99.90
25582;DHT22;13462;50.764;4.332;2022-11-11T01:40:09;9.40;99.90
25582;DHT22;13462;50.764;4.332;2022-11-11T01:45:53;9.30;99.90
25582;DHT22;13462;50.764;4.332;2022-11-11T01:48:39;9.30;99.90
25582;DHT22;13462;50.764;4.332;2022-11-11T01:51:41;9.30;99.90
25582;DHT22;13462;50.764;4.332;2022-11-11T01:57:12;9.30;99.90
25582;DHT22;13462;50.764;4.332;2022-11-11T01:59:41;9.30;99.90
25582;DHT22;13462;50.764;4.332;2022-11-11T02:02:18;9.30;99.90
25582;DHT22;13462;50.764;4.332;2022-11-11T02:04:46;9.20;99.90
25582;DHT22;13462;50.764;4.332;2022-11-11T02:07:33;9.20;99.90
25582;DHT22;13462;50.764;4.332;2022-11-11T02:10:01;9.20;99.90
25582;DHT22;13462;50.764;4.332;2022-11-11T02:12:27;9.20;99.90
25582;DHT22;13462;50.764;4.332;2022-11-11T02:15:11;9.10;99.90
25582;DHT22;13462;50.764;4.332;2022-11-11T02:17:38;9.20;99.90
25582;DHT22;13462;50.764;4.332;2022-11-11T02:20:05;9.20;99.90
25582;DHT22;13462;50.764;4.332;2022-11-11T02:22:42;9.20;99.90
25582;DHT22;13462;50.764;4.332;2022-11-11T02:25:10;9.30;99.90
25582;DHT22;13462;50.764;4.332;2022-11-11T02:27:39;9.20;99.90
25582;DHT22;13462;50.764;4.332;2022-11-11T02:30:07;9.30;99.90
25582;DHT22;13462;50.764;4.332;2022-11-11T02:32:43;9.30;99.90
25582;DHT22;13462;50.764;4.332;2022-11-11T02:35:21;9.30;99.90
25582;DHT22;13462;50.764;4.332;2022-11-11T02:37:49;9.30;99.90
25582;DHT22;13462;50.764;4.332;2022-11-11T02:40:20;9.30;99.90
25582;DHT22;13462;50.764;4.332;2022-11-11T02:42:47;9.30;99.90
25582;DHT22;13462;50.764;4.332;2022-11-11T02:45:13;9.30;99.90
25582;DHT22;13462;50.764;4.332;2022-11-11T02:47:38;9.20;99.90
25582;DHT22;13462;50.764;4.332;2022-11-11T02:50:05;9.30;99.90
25582;DHT22;13462;50.764;4.332;2022-11-11T02:52:30;9.30;99.90
25582;DHT22;13462;50.764;4.332;2022-11-11T02:54:56;9.20;99.90
25582;DHT22;13462;50.764;4.332;2022-11-11T02:57:21;9.20;99.90
25582;DHT22;13462;50.764;4.332;2022-11-11T02:59:47;9.40;99.90
25582;DHT22;13462;50.764;4.332;2022-11-11T03:02:13;9.30;99.90
25582;DHT22;13462;50.764;4.332;2022-11-11T03:04:38;9.30;99.90
25582;DHT22;13462;50.764;4.332;2022-11-11T03:07:04;9.20;99.90
25582;DHT22;13462;50.764;4.332;2022-11-11T03:09:30;9.30;99.90
25582;DHT22;13462;50.764;4.332;2022-11-11T03:11:56;9.40;99.90
25582;DHT22;13462;50.764;4.332;2022-11-11T03:14:22;9.30;99.90
25582;DHT22;13462;50.764;4.332;2022-11-11T03:16:48;9.40;99.90
25582;DHT22;13462;50.764;4.332;2022-11-11T03:19:32;9.40;99.90
25582;DHT22;13462;50.764;4.332;2022-11-11T03:21:58;9.20;99.90
25582;DHT22;13462;50.764;4.332;2022-11-11T03:24:24;9.30;99.90
25582;DHT22;13462;50.764;4.332;2022-11-11T03:27:10;9.30;99.90
25582;DHT22;13462;50.764;4.332;2022-11-11T03:29:36;9.20;99.90
25582;DHT22;13462;50.764;4.332;2022-11-11T03:32:01;9.20;99.90
25582;DHT22;13462;50.764;4.332;2022-11-11T03:34:27;9.30;99.90
25582;DHT22;13462;50.764;4.332;2022-11-11T03:36:52;9.30;99.90
25582;DHT22;13462;50.764;4.332;2022-11-11T03:39:36;9.30;99.90
25582;DHT22;13462;50.764;4.332;2022-11-11T03:42:02;9.20;99.90
25582;DHT22;13462;50.764;4.332;2022-11-11T03:44:27;9.40;99.90
25582;DHT22;13462;50.764;4.332;2022-11-11T03:46:54;9.40;99.90
25582;DHT22;13462;50.764;4.332;2022-11-11T03:49:20;9.40;99.90
25582;DHT22;13462;50.764;4.332;2022-11-11T03:51:45;9.40;99.90
25582;DHT22;13462;50.764;4.332;2022-11-11T03:54:11;9.30;99.90
25582;DHT22;13462;50.764;4.332;2022-11-11T03:56:37;9.30;99.90
25582;DHT22;13462;50.764;4.332;2022-11-11T03:59:02;9.40;99.90
25582;DHT22;13462;50.764;4.332;2022-11-11T04:01:28;9.50;99.90
25582;DHT22;13462;50.764;4.332;2022-11-11T04:04:12;9.70;99.90
25582;DHT22;13462;50.764;4.332;2022-11-11T04:06:56;9.70;99.90
25582;DHT22;13462;50.764;4.332;2022-11-11T04:09:40;9.50;99.90
25582;DHT22;13462;50.764;4.332;2022-11-11T04:12:25;9.30;99.90
25582;DHT22;13462;50.764;4.332;2022-11-11T04:14:52;9.30;99.90
25582;DHT22;13462;50.764;4.332;2022-11-11T04:17:36;9.30;99.90
25582;DHT22;13462;50.764;4.332;2022-11-11T04:20:02;9.40;99.90
25582;DHT22;13462;50.764;4.332;2022-11-11T04:22:46;9.40;99.90
25582;DHT22;13462;50.764;4.332;2022-11-11T04:25:12;9.40;99.90
25582;DHT22;13462;50.764;4.332;2022-11-11T04:27:57;9.40;99.90
25582;DHT22;13462;50.764;4.332;2022-11-11T04:30:41;9.40;99.90
25582;DHT22;13462;50.764;4.332;2022-11-11T04:33:07;9.30;99.90
25582;DHT22;13462;50.764;4.332;2022-11-11T04:35:32;9.20;99.90
25582;DHT22;13462;50.764;4.332;2022-11-11T04:37:58;9.20;99.90
25582;DHT22;13462;50.764;4.332;2022-11-11T04:40:42;9.20;99.90
25582;DHT22;13462;50.764;4.332;2022-11-11T04:43:26;9.10;99.90
25582;DHT22;13462;50.764;4.332;2022-11-11T04:45:52;9.10;99.90
25582;DHT22;13462;50.764;4.332;2022-11-11T04:48:17;9.20;99.90
25582;DHT22;13462;50.764;4.332;2022-11-11T04:50:45;9.10;99.90
25582;DHT22;13462;50.764;4.332;2022-11-11T04:53:13;9.10;99.90
25582;DHT22;13462;50.764;4.332;2022-11-11T04:55:40;8.90;99.90
25582;DHT22;13462;50.764;4.332;2022-11-11T04:58:31;8.80;99.90
25582;DHT22;13462;50.764;4.332;2022-11-11T05:00:57;8.90;99.90
25582;DHT22;13462;50.764;4.332;2022-11-11T05:03:23;8.80;99.90
25582;DHT22;13462;50.764;4.332;2022-11-11T05:05:51;8.90;99.90
25582;DHT22;13462;50.764;4.332;2022-11-11T05:08:38;8.90;99.90
25582;DHT22;13462;50.764;4.332;2022-11-11T05:11:35;8.90;99.90
25582;DHT22;13462;50.764;4.332;2022-11-11T05:14:03;9.00;99.90
25582;DHT22;13462;50.764;4.332;2022-11-11T05:16:52;8.90;99.90
25582;DHT22;13462;50.764;4.332;2022-11-11T05:19:37;8.90;99.90
25582;DHT22;13462;50.764;4.332;2022-11-11T05:22:30;8.80;99.90
25582;DHT22;13462;50.764;4.332;2022-11-11T05:24:57;8.80;99.90
25582;DHT22;13462;50.764;4.332;2022-11-11T05:27:42;8.70;99.90
25582;DHT22;13462;50.764;4.332;2022-11-11T05:30:09;8.60;99.90
25582;DHT22;13462;50.764;4.332;2022-11-11T05:32:36;8.60;99.90
25582;DHT22;13462;50.764;4.332;2022-11-11T05:35:02;8.40;99.90
25582;DHT22;13462;50.764;4.332;2022-11-11T05:37:28;8.40;99.90
25582;DHT22;13462;50.764;4.332;2022-11-11T05:39:53;8.30;99.90
25582;DHT22;13462;50.764;4.332;2022-11-11T05:42:19;8.30;99.90
25582;DHT22;13462;50.764;4.332;2022-11-11T05:44:45;8.30;99.90
25582;DHT22;13462;50.764;4.332;2022-11-11T05:47:10;8.20;99.90
25582;DHT22;13462;50.764;4.332;2022-11-11T05:49:36;8.20;99.90
25582;DHT22;13462;50.764;4.332;2022-11-11T05:52:03;8.10;99.90
25582;DHT22;13462;50.764;4.332;2022-11-11T05:54:29;8.00;99.90
25582;DHT22;13462;50.764;4.332;2022-11-11T05:56:54;7.90;99.90
25582;DHT22;13462;50.764;4.332;2022-11-11T05:59:20;7.90;99.90
25582;DHT22;13462;50.764;4.332;2022-11-11T06:01:46;7.80;99.90
25582;DHT22;13462;50.764;4.332;2022-11-11T06:04:12;7.70;99.90
25582;DHT22;13462;50.764;4.332;2022-11-11T06:06:37;7.60;99.90
25582;DHT22;13462;50.764;4.332;2022-11-11T06:09:04;7.70;99.90
25582;DHT22;13462;50.764;4.332;2022-11-11T06:11:30;7.70;99.90
25582;DHT22;13462;50.764;4.332;2022-11-11T06:13:56;7.70;99.90
25582;DHT22;13462;50.764;4.332;2022-11-11T06:16:22;7.90;99.90
25582;DHT22;13462;50.764;4.332;2022-11-11T06:18:49;7.80;99.90
25582;DHT22;13462;50.764;4.332;2022-11-11T06:21:15;7.80;99.90
25582;DHT22;13462;50.764;4.332;2022-11-11T06:23:41;7.80;99.90
25582;DHT22;13462;50.764;4.332;2022-11-11T06:26:09;7.80;99.90
25582;DHT22;13462;50.764;4.332;2022-11-11T06:28:56;7.80;99.90
25582;DHT22;13462;50.764;4.332;2022-11-11T06:31:26;7.70;99.90
25582;DHT22;13462;50.764;4.332;2022-11-11T06:33:52;7.70;99.90
25582;DHT22;13462;50.764;4.332;2022-11-11T06:36:20;7.70;99.90
25582;DHT22;13462;50.764;4.332;2022-11-11T06:38:46;7.70;99.90
25582;DHT22;13462;50.764;4.332;2022-11-11T06:41:12;7.70;99.90
25582;DHT22;13462;50.764;4.332;2022-11-11T06:43:39;7.70;99.90
25582;DHT22;13462;50.764;4.332;2022-11-11T06:46:05;7.80;99.90
25582;DHT22;13462;50.764;4.332;2022-11-11T06:48:31;7.80;99.90
25582;DHT22;13462;50.764;4.332;2022-11-11T06:51:04;7.90;99.90
25582;DHT22;13462;50.764;4.332;2022-11-11T06:53:31;8.00;99.90
25582;DHT22;13462;50.764;4.332;2022-11-11T06:55:57;8.00;99.90
25582;DHT22;13462;50.764;4.332;2022-11-11T06:58:23;8.00;99.90
25582;DHT22;13462;50.764;4.332;2022-11-11T07:00:49;8.20;99.90
25582;DHT22;13462;50.764;4.332;2022-11-11T07:03:17;8.20;99.90
25582;DHT22;13462;50.764;4.332;2022-11-11T07:05:44;8.30;99.90
25582;DHT22;13462;50.764;4.332;2022-11-11T07:08:13;8.30;99.90
25582;DHT22;13462;50.764;4.332;2022-11-11T07:10:43;8.30;99.90
25582;DHT22;13462;50.764;4.332;2022-11-11T07:13:09;8.40;99.90
25582;DHT22;13462;50.764;4.332;2022-11-11T07:15:35;8.40;99.90
25582;DHT22;13462;50.764;4.332;2022-11-11T07:18:07;8.40;99.90
25582;DHT22;13462;50.764;4.332;2022-11-11T07:20:33;8.40;99.90
25582;DHT22;13462;50.764;4.332;2022-11-11T07:22:59;8.50;99.90
25582;DHT22;13462;50.764;4.332;2022-11-11T07:25:28;8.60;99.90
25582;DHT22;13462;50.764;4.332;2022-11-11T07:27:54;8.60;99.90
25582;DHT22;13462;50.764;4.332;2022-11-11T07:30:19;8.50;99.90
25582;DHT22;13462;50.764;4.332;2022-11-11T07:32:48;8.60;99.90
25582;DHT22;13462;50.764;4.332;2022-11-11T07:35:14;8.60;99.90
25582;DHT22;13462;50.764;4.332;2022-11-11T07:37:41;8.60;99.90
25582;DHT22;13462;50.764;4.332;2022-11-11T07:40:08;8.70;99.90
25582;DHT22;13462;50.764;4.332;2022-11-11T07:42:38;8.70;99.90
25582;DHT22;13462;50.764;4.332;2022-11-11T07:45:05;8.70;99.90
25582;DHT22;13462;50.764;4.332;2022-11-11T07:47:31;8.80;99.90
25582;DHT22;13462;50.764;4.332;2022-11-11T07:49:59;8.80;99.90
25582;DHT22;13462;50.764;4.332;2022-11-11T07:52:25;8.80;99.90
25582;DHT22;13462;50.764;4.332;2022-11-11T07:54:50;8.80;99.90
25582;DHT22;13462;50.764;4.332;2022-11-11T07:57:16;8.80;99.90
25582;DHT22;13462;50.764;4.332;2022-11-11T07:59:42;8.70;99.90
25582;DHT22;13462;50.764;4.332;2022-11-11T08:02:12;8.60;99.90
25582;DHT22;13462;50.764;4.332;2022-11-11T08:04:40;8.70;99.90
25582;DHT22;13462;50.764;4.332;2022-11-11T08:07:06;8.70;99.90
25582;DHT22;13462;50.764;4.332;2022-11-11T08:09:32;8.80;99.90
25582;DHT22;13462;50.764;4.332;2022-11-11T08:11:57;8.90;99.90
25582;DHT22;13462;50.764;4.332;2022-11-11T08:14:45;8.90;99.90
25582;DHT22;13462;50.764;4.332;2022-11-11T08:17:12;8.90;99.90
25582;DHT22;13462;50.764;4.332;2022-11-11T08:19:38;9.10;99.90
25582;DHT22;13462;50.764;4.332;2022-11-11T08:22:04;9.20;99.90
25582;DHT22;13462;50.764;4.332;2022-11-11T08:24:30;9.30;99.90
25582;DHT22;13462;50.764;4.332;2022-11-11T08:26:56;9.40;99.90
25582;DHT22;13462;50.764;4.332;2022-11-11T08:29:22;9.50;99.90
25582;DHT22;13462;50.764;4.332;2022-11-11T08:31:48;9.60;99.90
25582;DHT22;13462;50.764;4.332;2022-11-11T08:34:15;9.50;99.90
25582;DHT22;13462;50.764;4.332;2022-11-11T08:36:41;9.50;99.90
25582;DHT22;13462;50.764;4.332;2022-11-11T08:39:07;9.70;99.90
25582;DHT22;13462;50.764;4.332;2022-11-11T08:41:33;9.70;99.90
25582;DHT22;13462;50.764;4.332;2022-11-11T08:43:58;9.90;99.90
25582;DHT22;13462;50.764;4.332;2022-11-11T08:46:25;9.90;99.90
25582;DHT22;13462;50.764;4.332;2022-11-11T08:48:51;9.90;99.90
25582;DHT22;13462;50.764;4.332;2022-11-11T08:51:17;10.30;99.90
25582;DHT22;13462;50.764;4.332;2022-11-11T08:53:42;10.80;99.90
25582;DHT22;13462;50.764;4.332;2022-11-11T08:56:08;11.20;99.90
25582;DHT22;13462;50.764;4.332;2022-11-11T08:58:34;11.90;99.90
25582;DHT22;13462;50.764;4.332;2022-11-11T09:01:00;12.40;99.90
25582;DHT22;13462;50.764;4.332;2022-11-11T09:03:28;13.40;99.90
25582;DHT22;13462;50.764;4.332;2022-11-11T09:05:54;14.40;99.90
25582;DHT22;13462;50.764;4.332;2022-11-11T09:08:20;15.00;99.90
25582;DHT22;13462;50.764;4.332;2022-11-11T09:10:45;15.80;99.90
25582;DHT22;13462;50.764;4.332;2022-11-11T09:13:11;16.60;99.90
25582;DHT22;13462;50.764;4.332;2022-11-11T09:15:37;17.20;99.90
25582;DHT22;13462;50.764;4.332;2022-11-11T09:18:02;17.60;99.90
25582;DHT22;13462;50.764;4.332;2022-11-11T09:20:28;17.70;99.90
25582;DHT22;13462;50.764;4.332;2022-11-11T09:22:54;17.80;99.90
25582;DHT22;13462;50.764;4.332;2022-11-11T09:25:20;17.80;99.90
25582;DHT22;13462;50.764;4.332;2022-11-11T09:27:59;18.00;99.90
25582;DHT22;13462;50.764;4.332;2022-11-11T09:30:26;18.40;99.90
25582;DHT22;13462;50.764;4.332;2022-11-11T09:32:53;19.50;99.90
25582;DHT22;13462;50.764;4.332;2022-11-11T09:35:19;20.00;99.90
25582;DHT22;13462;50.764;4.332;2022-11-11T09:37:55;20.90;98.70
25582;DHT22;13462;50.764;4.332;2022-11-11T09:40:28;21.20;97.00
25582;DHT22;13462;50.764;4.332;2022-11-11T09:43:09;21.20;96.80
25582;DHT22;13462;50.764;4.332;2022-11-11T09:45:48;21.30;96.00
25582;DHT22;13462;50.764;4.332;2022-11-11T09:49:03;22.40;94.70
25582;DHT22;13462;50.764;4.332;2022-11-11T09:51:47;23.00;93.00
25582;DHT22;13462;50.764;4.332;2022-11-11T09:54:19;22.80;92.40
25582;DHT22;13462;50.764;4.332;2022-11-11T09:56:46;22.40;93.00
25582;DHT22;13462;50.764;4.332;2022-11-11T09:59:51;23.10;91.70
25582;DHT22;13462;50.764;4.332;2022-11-11T10:02:29;23.20;90.80
25582;DHT22;13462;50.764;4.332;2022-11-11T10:05:12;22.60;91.50
25582;DHT22;13462;50.764;4.332;2022-11-11T10:07:46;22.60;91.90
25582;DHT22;13462;50.764;4.332;2022-11-11T10:12:55;23.30;90.30
25582;DHT22;13462;50.764;4.332;2022-11-11T10:15:28;23.50;89.60
25582;DHT22;13462;50.764;4.332;2022-11-11T10:18:03;23.20;90.70
25582;DHT22;13462;50.764;4.332;2022-11-11T10:20:34;23.30;89.50
25582;DHT22;13462;50.764;4.332;2022-11-11T10:23:15;23.00;89.50
25582;DHT22;13462;50.764;4.332;2022-11-11T10:25:53;23.30;90.80
25582;DHT22;13462;50.764;4.332;2022-11-11T10:28:20;22.80;90.30
25582;DHT22;13462;50.764;4.332;2022-11-11T10:30:49;22.40;90.30
25582;DHT22;13462;50.764;4.332;2022-11-11T10:33:23;21.30;91.60
25582;DHT22;13462;50.764;4.332;2022-11-11T10:35:51;20.50;93.50
25582;DHT22;13462;50.764;4.332;2022-11-11T10:38:39;20.60;93.80
25582;DHT22;13462;50.764;4.332;2022-11-11T10:41:29;20.30;93.60
25582;DHT22;13462;50.764;4.332;2022-11-11T10:43:56;19.40;95.70
25582;DHT22;13462;50.764;4.332;2022-11-11T10:46:54;19.20;96.80
25582;DHT22;13462;50.764;4.332;2022-11-11T10:49:23;19.50;96.70
25582;DHT22;13462;50.764;4.332;2022-11-11T10:52:12;19.30;96.70
25582;DHT22;13462;50.764;4.332;2022-11-11T10:54:56;19.10;97.80
25582;DHT22;13462;50.764;4.332;2022-11-11T11:00:13;17.70;99.90
25582;DHT22;13462;50.764;4.332;2022-11-11T11:05:26;16.30;99.90
25582;DHT22;13462;50.764;4.332;2022-11-11T11:08:01;16.10;99.90
25582;DHT22;13462;50.764;4.332;2022-11-11T11:10:38;15.80;99.90
25582;DHT22;13462;50.764;4.332;2022-11-11T11:13:25;15.20;99.90
25582;DHT22;13462;50.764;4.332;2022-11-11T11:16:02;15.00;99.90
25582;DHT22;13462;50.764;4.332;2022-11-11T11:18:29;15.00;99.90
25582;DHT22;13462;50.764;4.332;2022-11-11T11:21:01;15.40;99.90
25582;DHT22;13462;50.764;4.332;2022-11-11T11:26:06;15.20;99.90
25582;DHT22;13462;50.764;4.332;2022-11-11T11:28:32;15.30;99.90
25582;DHT22;13462;50.764;4.332;2022-11-11T11:31:06;15.60;99.90
25582;DHT22;13462;50.764;4.332;2022-11-11T11:33:53;15.80;99.90
25582;DHT22;13462;50.764;4.332;2022-11-11T11:36:18;15.60;99.90
25582;DHT22;13462;50.764;4.332;2022-11-11T11:38:46;15.50;99.90
25582;DHT22;13462;50.764;4.332;2022-11-11T11:41:15;15.20;99.90
25582;DHT22;13462;50.764;4.332;2022-11-11T11:43:41;15.30;99.90
25582;DHT22;13462;50.764;4.332;2022-11-11T11:46:35;15.30;99.90
25582;DHT22;13462;50.764;4.332;2022-11-11T11:49:15;15.40;99.90
25582;DHT22;13462;50.764;4.332;2022-11-11T11:54:49;15.60;99.90
25582;DHT22;13462;50.764;4.332;2022-11-11T12:19:19;17.00;99.90
25582;DHT22;13462;50.764;4.332;2022-11-11T12:24:45;17.40;99.90
25582;DHT22;13462;50.764;4.332;2022-11-11T12:27:22;17.30;99.90
25582;DHT22;13462;50.764;4.332;2022-11-11T12:30:23;17.50;99.90
25582;DHT22;13462;50.764;4.332;2022-11-11T12:44:06;18.00;99.90
25582;DHT22;13462;50.764;4.332;2022-11-11T12:55:02;18.70;99.90
25582;DHT22;13462;50.764;4.332;2022-11-11T13:00:29;19.30;99.90
25582;DHT22;13462;50.764;4.332;2022-11-11T13:11:39;18.80;99.90
25582;DHT22;13462;50.764;4.332;2022-11-11T13:16:41;19.10;99.90
25582;DHT22;13462;50.764;4.332;2022-11-11T13:19:30;19.20;99.80
25582;DHT22;13462;50.764;4.332;2022-11-11T13:22:12;19.60;99.70
25582;DHT22;13462;50.764;4.332;2022-11-11T13:24:39;19.90;98.10
25582;DHT22;13462;50.764;4.332;2022-11-11T13:27:30;19.70;98.80
25582;DHT22;13462;50.764;4.332;2022-11-11T13:32:36;19.90;97.20
25582;DHT22;13462;50.764;4.332;2022-11-11T13:37:55;19.20;96.60
25582;DHT22;13462;50.764;4.332;2022-11-11T13:40:40;18.70;95.90
25582;DHT22;13462;50.764;4.332;2022-11-11T13:43:19;18.50;96.50
25582;DHT22;13462;50.764;4.332;2022-11-11T13:45:52;18.00;97.50
25582;DHT22;13462;50.764;4.332;2022-11-11T13:48:28;17.50;98.30
25582;DHT22;13462;50.764;4.332;2022-11-11T13:51:25;17.40;99.40
25582;DHT22;13462;50.764;4.332;2022-11-11T13:53:52;17.30;99.90
25582;DHT22;13462;50.764;4.332;2022-11-11T13:56:40;17.50;99.90
25582;DHT22;13462;50.764;4.332;2022-11-11T13:59:07;17.50;99.90
25582;DHT22;13462;50.764;4.332;2022-11-11T14:01:40;17.60;99.90
25582;DHT22;13462;50.764;4.332;2022-11-11T14:04:07;17.60;99.90
25582;DHT22;13462;50.764;4.332;2022-11-11T14:08:58;17.30;99.90
25582;DHT22;13462;50.764;4.332;2022-11-11T14:13:57;17.00;99.90
25582;DHT22;13462;50.764;4.332;2022-11-11T14:21:53;16.60;99.90
25582;DHT22;13462;50.764;4.332;2022-11-11T14:24:24;16.30;99.90
25582;DHT22;13462;50.764;4.332;2022-11-11T14:27:02;16.20;99.90
25582;DHT22;13462;50.764;4.332;2022-11-11T14:29:35;16.00;99.90
25582;DHT22;13462;50.764;4.332;2022-11-11T14:35:37;15.70;99.90
25582;DHT22;13462;50.764;4.332;2022-11-11T14:40:45;15.40;99.90
25582;DHT22;13462;50.764;4.332;2022-11-11T14:46:05;15.30;99.90
25582;DHT22;13462;50.764;4.332;2022-11-11T14:48:53;15.30;99.90
25582;DHT22;13462;50.764;4.332;2022-11-11T14:51:45;15.20;99.90
25582;DHT22;13462;50.764;4.332;2022-11-11T14:57:06;15.00;99.90
25582;DHT22;13462;50.764;4.332;2022-11-11T14:59:33;15.00;99.90
25582;DHT22;13462;50.764;4.332;2022-11-11T15:02:00;14.80;99.90
25582;DHT22;13462;50.764;4.332;2022-11-11T15:04:27;14.90;99.90
25582;DHT22;13462;50.764;4.332;2022-11-11T15:07:01;14.70;99.90
25582;DHT22;13462;50.764;4.332;2022-11-11T15:12:29;14.60;99.90
25582;DHT22;13462;50.764;4.332;2022-11-11T15:15:23;14.50;99.90
25582;DHT22;13462;50.764;4.332;2022-11-11T15:20:58;14.40;99.90
25582;DHT22;13462;50.764;4.332;2022-11-11T15:23:48;14.40;99.90
25582;DHT22;13462;50.764;4.332;2022-11-11T15:34:48;13.90;99.90
25582;DHT22;13462;50.764;4.332;2022-11-11T15:37:17;13.80;99.90
25582;DHT22;13462;50.764;4.332;2022-11-11T15:39:50;13.70;99.90
25582;DHT22;13462;50.764;4.332;2022-11-11T15:42:39;13.60;99.90
25582;DHT22;13462;50.764;4.332;2022-11-11T15:47:46;13.20;99.90
25582;DHT22;13462;50.764;4.332;2022-11-11T15:50:30;13.10;99.90
25582;DHT22;13462;50.764;4.332;2022-11-11T15:52:59;13.00;99.90
25582;DHT22;13462;50.764;4.332;2022-11-11T15:55:26;13.00;99.90
25582;DHT22;13462;50.764;4.332;2022-11-11T15:57:51;12.90;99.90
25582;DHT22;13462;50.764;4.332;2022-11-11T16:02:49;12.80;99.90
25582;DHT22;13462;50.764;4.332;2022-11-11T16:05:23;12.70;99.90
25582;DHT22;13462;50.764;4.332;2022-11-11T16:07:49;12.60;99.90
25582;DHT22;13462;50.764;4.332;2022-11-11T16:10:34;12.40;99.90
25582;DHT22;13462;50.764;4.332;2022-11-11T16:18:09;12.40;99.90
25582;DHT22;13462;50.764;4.332;2022-11-11T16:20:47;12.30;99.90
25582;DHT22;13462;50.764;4.332;2022-11-11T16:23:16;12.30;99.90
25582;DHT22;13462;50.764;4.332;2022-11-11T16:25:44;12.30;99.90
25582;DHT22;13462;50.764;4.332;2022-11-11T16:28:11;12.30;99.90
25582;DHT22;13462;50.764;4.332;2022-11-11T16:30:37;12.00;99.90
25582;DHT22;13462;50.764;4.332;2022-11-11T16:33:03;12.00;99.90
25582;DHT22;13462;50.764;4.332;2022-11-11T16:35:37;11.90;99.90
25582;DHT22;13462;50.764;4.332;2022-11-11T16:38:04;11.90;99.90
25582;DHT22;13462;50.764;4.332;2022-11-11T16:43:20;11.80;99.90
25582;DHT22;13462;50.764;4.332;2022-11-11T16:45:52;11.70;99.90
25582;DHT22;13462;50.764;4.332;2022-11-11T16:51:15;11.70;99.90
25582;DHT22;13462;50.764;4.332;2022-11-11T16:54:13;11.80;99.90
25582;DHT22;13462;50.764;4.332;2022-11-11T16:56:50;11.90;99.90
25582;DHT22;13462;50.764;4.332;2022-11-11T16:59:41;11.80;99.90
25582;DHT22;13462;50.764;4.332;2022-11-11T17:02:18;11.70;99.90
25582;DHT22;13462;50.764;4.332;2022-11-11T17:04:46;11.70;99.90
25582;DHT22;13462;50.764;4.332;2022-11-11T17:07:31;11.70;99.90
25582;DHT22;13462;50.764;4.332;2022-11-11T17:10:18;11.60;99.90
25582;DHT22;13462;50.764;4.332;2022-11-11T17:12:44;11.60;99.90
25582;DHT22;13462;50.764;4.332;2022-11-11T17:15:15;11.60;99.90
25582;DHT22;13462;50.764;4.332;2022-11-11T17:17:43;11.60;99.90
25582;DHT22;13462;50.764;4.332;2022-11-11T17:20:20;11.50;99.90
25582;DHT22;13462;50.764;4.332;2022-11-11T17:22:54;11.50;99.90
25582;DHT22;13462;50.764;4.332;2022-11-11T17:25:20;11.50;99.90
25582;DHT22;13462;50.764;4.332;2022-11-11T17:27:45;11.50;99.90
25582;DHT22;13462;50.764;4.332;2022-11-11T17:30:12;11.50;99.90
25582;DHT22;13462;50.764;4.332;2022-11-11T17:32:38;11.40;99.90
25582;DHT22;13462;50.764;4.332;2022-11-11T17:35:04;11.40;99.90
25582;DHT22;13462;50.764;4.332;2022-11-11T17:37:34;11.40;99.90
25582;DHT22;13462;50.764;4.332;2022-11-11T17:40:00;11.40;99.90
25582;DHT22;13462;50.764;4.332;2022-11-11T17:42:27;11.30;99.90
25582;DHT22;13462;50.764;4.332;2022-11-11T17:44:54;11.10;99.90
25582;DHT22;13462;50.764;4.332;2022-11-11T17:47:19;10.90;99.90
25582;DHT22;13462;50.764;4.332;2022-11-11T17:49:45;10.80;99.90
25582;DHT22;13462;50.764;4.332;2022-11-11T17:52:10;10.70;99.90
25582;DHT22;13462;50.764;4.332;2022-11-11T17:54:36;10.70;99.90
25582;DHT22;13462;50.764;4.332;2022-11-11T17:57:01;10.70;99.90
25582;DHT22;13462;50.764;4.332;2022-11-11T17:59:27;10.70;99.90
25582;DHT22;13462;50.764;4.332;2022-11-11T18:01:55;10.70;99.90
25582;DHT22;13462;50.764;4.332;2022-11-11T18:04:21;10.80;99.90
25582;DHT22;13462;50.764;4.332;2022-11-11T18:06:47;10.80;99.90
25582;DHT22;13462;50.764;4.332;2022-11-11T18:09:12;10.80;99.90
25582;DHT22;13462;50.764;4.332;2022-11-11T18:11:38;10.80;99.90
25582;DHT22;13462;50.764;4.332;2022-11-11T18:14:04;10.80;99.90
25582;DHT22;13462;50.764;4.332;2022-11-11T18:16:29;10.90;99.90
25582;DHT22;13462;50.764;4.332;2022-11-11T18:18:55;10.90;99.90
25582;DHT22;13462;50.764;4.332;2022-11-11T18:21:24;10.90;99.90